Piarco FIR Weather

TAPA 212000Z 10008KT 060V140 9999 FEW020 SCT036 29/23 Q1015 NOSIG

TBPB 212000Z 13012KT 9999 VCSH FEW020 30/24 Q1014 NOSIG

TDPD 212000Z 29004KT 9999 SCT016 SCT034 28/25 Q1015

TFFF 212000Z AUTO 11013KT 9999 SCT034/// BKN046/// ///CB 31/23 Q1014 TEMPO 4000 SHRA

TFFR 212000Z AUTO 16008KT 130V190 9999 SCT025/// BKN039/// BKN056/// ///CB 26/24 Q1015 TEMPO 3000 SHRA

TGPY 212000Z 12008KT 9999 FEW015CB SCT018 30/25 Q1013 NOSIG CB-S

TKPK 211800Z 05012KT 9999 FEW022 BKN070 30/26 Q1015

TKPN 212000Z 09010KT 9999 FEW017TCU Q1014

TLPC 212000Z 10008KT 9999 FEW026 30/22 Q1014 NOSIG

TLPL 212000Z 11013KT 9999 FEW029 31/23 Q1014 NOSIG

TTCP 212000Z 12011KT 9999 SCT020 29/23 Q1013 NOSIG

TTPP 212000Z 14007KT 9999 VCSH FEW012CB BKN045 29/23 Q1013 TEMPO SHRA RMK CB SW

TVSV 121600Z 08005KT 040V120 9999 SCT020 28/20 Q1017 NOSIG